地図

経路データ

SID SEASON NUMBER BASIN SUBBASIN NAME ISO_TIME NATURE LAT LON WMO_WIND WMO_PRES WMO_AGENCY TRACK_TYPE DIST2LAND LANDFALL IFLAG USA_AGENCY USA_ATCF_ID USA_LAT USA_LON USA_RECORD USA_STATUS USA_WIND USA_PRES USA_SSHS USA_R34_NE USA_R34_SE USA_R34_SW USA_R34_NW USA_R50_NE USA_R50_SE USA_R50_SW USA_R50_NW USA_R64_NE USA_R64_SE USA_R64_SW USA_R64_NW USA_POCI USA_ROCI USA_RMW USA_EYE TOKYO_LAT TOKYO_LON TOKYO_GRADE TOKYO_WIND TOKYO_PRES TOKYO_R50_DIR TOKYO_R50_LONG TOKYO_R50_SHORT TOKYO_R30_DIR TOKYO_R30_LONG TOKYO_R30_SHORT TOKYO_LAND CMA_LAT CMA_LON CMA_CAT CMA_WIND CMA_PRES HKO_LAT HKO_LON HKO_CAT HKO_WIND HKO_PRES NEWDELHI_LAT NEWDELHI_LON NEWDELHI_GRADE NEWDELHI_WIND NEWDELHI_PRES NEWDELHI_CI NEWDELHI_DP NEWDELHI_POCI REUNION_LAT REUNION_LON REUNION_TYPE REUNION_WIND REUNION_PRES REUNION_TNUM REUNION_CI REUNION_RMW REUNION_R34_NE REUNION_R34_SE REUNION_R34_SW REUNION_R34_NW REUNION_R50_NE REUNION_R50_SE REUNION_R50_SW REUNION_R50_NW REUNION_R64_NE REUNION_R64_SE REUNION_R64_SW REUNION_R64_NW BOM_LAT BOM_LON BOM_TYPE BOM_WIND BOM_PRES BOM_TNUM BOM_CI BOM_RMW BOM_R34_NE BOM_R34_SE BOM_R34_SW BOM_R34_NW BOM_R50_NE BOM_R50_SE BOM_R50_SW BOM_R50_NW BOM_R64_NE BOM_R64_SE BOM_R64_SW BOM_R64_NW BOM_ROCI BOM_POCI BOM_EYE BOM_POS_METHOD BOM_PRES_METHOD NADI_LAT NADI_LON NADI_CAT NADI_WIND NADI_PRES WELLINGTON_LAT WELLINGTON_LON WELLINGTON_WIND WELLINGTON_PRES DS824_LAT DS824_LON DS824_STAGE DS824_WIND DS824_PRES TD9636_LAT TD9636_LON TD9636_STAGE TD9636_WIND TD9636_PRES TD9635_LAT TD9635_LON TD9635_WIND TD9635_PRES TD9635_ROCI NEUMANN_LAT NEUMANN_LON NEUMANN_CLASS NEUMANN_WIND NEUMANN_PRES MLC_LAT MLC_LON MLC_CLASS MLC_WIND MLC_PRES USA_GUST BOM_GUST BOM_GUST_PER REUNION_GUST REUNION_GUST_PER USA_SEAHGT USA_SEARAD_NE USA_SEARAD_SE USA_SEARAD_SW USA_SEARAD_NW STORM_SPEED STORM_DIR
1869091S11073 1869 7 SI MM NOT_NAMED 1869-04-01 06:00:00 NR -11.1000 72.6000 reunion main 1885 1866 _____O________ -1 -11.1000 72.6000 99 9.90000 7 175
1869091S11073 1869 7 SI MM NOT_NAMED 1869-04-01 09:00:00 NR -11.4225 72.6316 main 1866 1854 _____P________ -1 -11.4225 72.6316 99 6 175
1869091S11073 1869 7 SI MM NOT_NAMED 1869-04-01 12:00:00 NR -11.7418 72.6603 main 1857 1840 _____P________ -1 -11.7418 72.6603 99 6 175
1869091S11073 1869 7 SI MM NOT_NAMED 1869-04-01 15:00:00 NR -12.0545 72.6831 main 1834 1822 _____P________ -1 -12.0545 72.6831 99 6 176
1869091S11073 1869 7 SI MM NOT_NAMED 1869-04-01 18:00:00 NR -12.3573 72.6968 main 1817 1806 _____P________ -1 -12.3573 72.6968 99 6 0
1869091S11073 1869 7 SI MM NOT_NAMED 1869-04-01 21:00:00 NR -12.6467 72.6984 main 1806 1789 _____P________ -1 -12.6467 72.6984 99 6 182
1869091S11073 1869 7 SI MM NOT_NAMED 1869-04-02 00:00:00 NR -12.9193 72.6849 main 1789 1773 _____P________ -1 -12.9193 72.6849 99 5 184
1869091S11073 1869 7 SI MM NOT_NAMED 1869-04-02 03:00:00 NR -13.1715 72.6531 main 1773 1753 _____P________ -1 -13.1715 72.6531 99 5 190
1869091S11073 1869 7 SI MM NOT_NAMED 1869-04-02 06:00:00 NR -13.4000 72.6000 reunion main 1753 1733 _____O________ -1 -13.4000 72.6000 99 9.90000 5 196
1869091S11073 1869 7 SI MM NOT_NAMED 1869-04-02 09:00:00 NR -13.6056 72.5276 main 1733 1722 _____P________ -1 -13.6056 72.5276 99 4 199
1869091S11073 1869 7 SI MM NOT_NAMED 1869-04-02 12:00:00 NR -13.8067 72.4575 main 1722 1703 _____P________ -1 -13.8067 72.4575 99 4 194
1869091S11073 1869 7 SI MM NOT_NAMED 1869-04-02 15:00:00 NR -14.0261 72.4167 main 1703 1688 _____P________ -1 -14.0261 72.4167 99 5 0
1869091S11073 1869 7 SI MM NOT_NAMED 1869-04-02 18:00:00 NR -14.2866 72.4318 main 1688 1683 _____P________ -1 -14.2866 72.4318 99 6 169
1869091S11073 1869 7 SI MM NOT_NAMED 1869-04-02 21:00:00 NR -14.6112 72.5297 main 1683 1679 _____P________ -1 -14.6112 72.5297 99 8 158
1869091S11073 1869 7 SI MM NOT_NAMED 1869-04-03 00:00:00 NR -15.0228 72.7380 main 1685 1685 _____P________ -1 -15.0228 72.7380 99 11 150
1869091S11073 1869 7 SI MM NOT_NAMED 1869-04-03 03:00:00 NR -15.5447 73.0849 main 1704 1700 _____P________ -1 -15.5447 73.0849 99 14 145
1869091S11073 1869 7 SI MM NOT_NAMED 1869-04-03 06:00:00 NR -16.2000 73.6000 reunion main 1729 1729 _____O________ -1 -16.2000 73.6000 99 9.90000 21 141
1869091S11073 1869 7 SI MM NOT_NAMED 1869-04-03 09:00:00 NR -17.2022 74.4871 main 1791 1788 _____P________ -1 -17.2022 74.4871 99 29 139
1869091S11073 1869 7 SI MM NOT_NAMED 1869-04-03 12:00:00 NR -18.3565 75.5760 main 1878 1878 _____P________ -1 -18.3565 75.5760 99 33 137
1869091S11073 1869 7 SI MM NOT_NAMED 1869-04-03 15:00:00 NR -19.6040 76.8151 main 1986 1986 _____P________ -1 -19.6040 76.8151 99 35 136
1869091S11073 1869 7 SI MM NOT_NAMED 1869-04-03 18:00:00 NR -20.8851 78.1497 main 2112 2112 _____P________ -1 -20.8851 78.1497 99 36 135
1869091S11073 1869 7 SI MM NOT_NAMED 1869-04-03 21:00:00 NR -22.1408 79.5205 main 2256 2256 _____P________ -1 -22.1408 79.5205 99 35 134
1869091S11073 1869 7 SI MM NOT_NAMED 1869-04-04 00:00:00 NR -23.3139 80.8641 main 2405 2405 _____P________ -1 -23.3139 80.8641 99 33 133
1869091S11073 1869 7 SI MM NOT_NAMED 1869-04-04 03:00:00 NR -24.3503 82.1138 main 2536 2536 _____P________ -1 -24.3503 82.1138 99 29 132
1869091S11073 1869 7 SI MM NOT_NAMED 1869-04-04 06:00:00 NR -25.2000 83.2000 main 2656 2656 _____O________ -1 -25.2000 83.2000 99 9.90000 23 130
1869091S11073 1869 7 SI MM NOT_NAMED 1869-04-04 09:00:00 NR -25.8290 84.0679 main 2753 2753 _____P________ -1 -25.8290 84.0679 99 17 128
1869091S11073 1869 7 SI MM NOT_NAMED 1869-04-04 12:00:00 NR -26.2577 84.7269 main 2817 2790 _____P________ -1 -26.2577 84.7269 99 12 124
1869091S11073 1869 7 SI MM NOT_NAMED 1869-04-04 15:00:00 NR -26.5177 85.2040 main 2790 2759 _____P________ -1 -26.5177 85.2040 99 8 118
1869091S11073 1869 7 SI MM NOT_NAMED 1869-04-04 18:00:00 NR -26.6391 85.5283 main 2759 2738 _____P________ -1 -26.6391 85.5283 99 5 106
1869091S11073 1869 7 SI MM NOT_NAMED 1869-04-04 21:00:00 NR -26.6504 85.7294 main 2738 2730 _____P________ -1 -26.6504 85.7294 99 3 78
1869091S11073 1869 7 SI MM NOT_NAMED 1869-04-05 00:00:00 NR -26.5794 85.8378 main 2730 2720 _____P________ -1 -26.5794 85.8378 99 2 35
1869091S11073 1869 7 SI MM NOT_NAMED 1869-04-05 03:00:00 NR -26.4536 85.8844 main 2721 2721 _____P________ -1 -26.4536 85.8844 99 3 12
1869091S11073 1869 7 SI MM NOT_NAMED 1869-04-05 06:00:00 NR -26.3000 85.9000 main 2723 _____O________ -1 -26.3000 85.9000 99 9.90000 3 0

IBTrACS Databaseについて

本データベースは、米国NOAAが公開する1842年以降の世界の熱帯低気圧のベストトラックデータアーカイブInternational Best Track Archive for Climate Stewardship (IBTrACS)を、ウェブで閲覧しやすい形式に変換したものです。

最終更新日:2021-11-26